Samut Prakan, Thailand
Current Conditions -  °F | °C
As of 7:30 AM on Wednesday 26 Nov 2014 (Local Time) from VTBS Reporting Station
Clear Clear  
Wind Chill: 81°   Ceiling: Unl
Heat Index: 84°   Visibility: 6mi
Dew Point: 70°   Wind: 7mph
Humidity: 70%   Direction: 320°NW
Pressure: 29.8"   Gusts: NA
Location:  13.61°N, 100.61°E
Report Text: VTBS 260030Z 32006KT 290V350 CAVOK 27/21 Q1009 NOSIG
Loading
Personal Weather Stations






























Interactive Weather Map New forecast layout! Learn more

10-Day Weather Forecast

Advertisements
Track Severe Weather on mobile